sensor_id;sensor_type;location;lat;lon;timestamp;pressure;altitude;pressure_sealevel;temperature;humidity
69848;BME280;57143;55.940;37.496;2024-01-30T00:00:15;100577.09;;;-0.58;100.00
69848;BME280;57143;55.940;37.496;2024-01-30T00:02:42;100586.13;;;-0.50;100.00
69848;BME280;57143;55.940;37.496;2024-01-30T00:05:11;100579.38;;;-0.54;100.00
69848;BME280;57143;55.940;37.496;2024-01-30T00:07:38;100595.22;;;-0.52;100.00
69848;BME280;57143;55.940;37.496;2024-01-30T00:10:08;100592.56;;;-0.52;100.00
69848;BME280;57143;55.940;37.496;2024-01-30T00:12:35;100586.38;;;-0.53;100.00
69848;BME280;57143;55.940;37.496;2024-01-30T00:15:03;100591.00;;;-0.55;100.00
69848;BME280;57143;55.940;37.496;2024-01-30T00:17:31;100595.59;;;-0.57;100.00
69848;BME280;57143;55.940;37.496;2024-01-30T00:19:58;100586.38;;;-0.53;100.00
69848;BME280;57143;55.940;37.496;2024-01-30T00:22:25;100579.75;;;-0.58;100.00
69848;BME280;57143;55.940;37.496;2024-01-30T00:24:52;100579.38;;;-0.54;100.00
69848;BME280;57143;55.940;37.496;2024-01-30T00:27:21;100578.28;;;-0.51;100.00
69848;BME280;57143;55.940;37.496;2024-01-30T00:29:48;100576.72;;;-0.54;100.00
69848;BME280;57143;55.940;37.496;2024-01-30T00:32:16;100574.88;;;-0.53;100.00
69848;BME280;57143;55.940;37.496;2024-01-30T00:34:45;100574.75;;;-0.52;100.00
69848;BME280;57143;55.940;37.496;2024-01-30T00:37:12;100587.97;;;-0.50;100.00
69848;BME280;57143;55.940;37.496;2024-01-30T00:39:39;100564.28;;;-0.64;100.00
69848;BME280;57143;55.940;37.496;2024-01-30T00:42:07;100571.13;;;-0.51;100.00
69848;BME280;57143;55.940;37.496;2024-01-30T00:44:36;100576.06;;;-0.46;100.00
69848;BME280;57143;55.940;37.496;2024-01-30T00:47:04;100571.13;;;-0.51;100.00
69848;BME280;57143;55.940;37.496;2024-01-30T00:49:32;100561.69;;;-0.44;100.00
69848;BME280;57143;55.940;37.496;2024-01-30T00:51:59;100574.28;;;-0.46;100.00
69848;BME280;57143;55.940;37.496;2024-01-30T00:54:27;100567.97;;;-0.45;100.00
69848;BME280;57143;55.940;37.496;2024-01-30T00:56:54;100574.13;;;-0.44;100.00
69848;BME280;57143;55.940;37.496;2024-01-30T00:59:22;100563.16;;;-0.51;100.00
69848;BME280;57143;55.940;37.496;2024-01-30T01:01:51;100564.09;;;-0.52;100.00
69848;BME280;57143;55.940;37.496;2024-01-30T01:04:19;100569.34;;;-0.50;100.00
69848;BME280;57143;55.940;37.496;2024-01-30T01:06:47;100558.09;;;-0.54;100.00
69848;BME280;57143;55.940;37.496;2024-01-30T01:09:14;100567.38;;;-0.48;100.00
69848;BME280;57143;55.940;37.496;2024-01-30T01:11:41;100557.44;;;-0.46;100.00
69848;BME280;57143;55.940;37.496;2024-01-30T01:14:09;100554.06;;;-0.48;100.00
69848;BME280;57143;55.940;37.496;2024-01-30T01:16:36;100552.97;;;-0.46;100.00
69848;BME280;57143;55.940;37.496;2024-01-30T01:19:05;100558.88;;;-0.42;100.00
69848;BME280;57143;55.940;37.496;2024-01-30T01:21:32;100549.69;;;-0.38;100.00
69848;BME280;57143;55.940;37.496;2024-01-30T01:23:59;100546.44;;;-0.42;100.00
69848;BME280;57143;55.940;37.496;2024-01-30T01:26:27;100540.72;;;-0.37;100.00
69848;BME280;57143;55.940;37.496;2024-01-30T01:28:54;100534.91;;;-0.42;100.00
69848;BME280;57143;55.940;37.496;2024-01-30T01:31:21;100528.47;;;-0.40;100.00
69848;BME280;57143;55.940;37.496;2024-01-30T01:33:50;100531.66;;;-0.46;100.00
69848;BME280;57143;55.940;37.496;2024-01-30T01:36:19;100535.91;;;-0.43;100.00
69848;BME280;57143;55.940;37.496;2024-01-30T01:38:46;100533.56;;;-0.37;100.00
69848;BME280;57143;55.940;37.496;2024-01-30T01:41:14;100549.16;;;-0.32;100.00
69848;BME280;57143;55.940;37.496;2024-01-30T01:43:41;100544.81;;;-0.33;100.00
69848;BME280;57143;55.940;37.496;2024-01-30T01:46:09;100551.31;;;-0.26;100.00
69848;BME280;57143;55.940;37.496;2024-01-30T01:48:36;100539.94;;;-0.28;100.00
69848;BME280;57143;55.940;37.496;2024-01-30T01:51:05;100529.56;;;-0.31;100.00
69848;BME280;57143;55.940;37.496;2024-01-30T01:53:35;100526.16;;;-0.33;100.00
69848;BME280;57143;55.940;37.496;2024-01-30T01:56:02;100534.22;;;-0.24;100.00
69848;BME280;57143;55.940;37.496;2024-01-30T01:58:30;100534.22;;;-0.24;100.00
69848;BME280;57143;55.940;37.496;2024-01-30T02:00:58;100529.63;;;-0.22;100.00
69848;BME280;57143;55.940;37.496;2024-01-30T02:03:26;100534.94;;;-0.22;100.00
69848;BME280;57143;55.940;37.496;2024-01-30T02:05:53;100528.41;;;-0.18;100.00
69848;BME280;57143;55.940;37.496;2024-01-30T02:08:21;100523.19;;;-0.19;100.00
69848;BME280;57143;55.940;37.496;2024-01-30T02:10:50;100535.25;;;-0.15;100.00
69848;BME280;57143;55.940;37.496;2024-01-30T02:13:18;100535.59;;;-0.09;100.00
69848;BME280;57143;55.940;37.496;2024-01-30T02:15:49;100535.34;;;-0.06;100.00
69848;BME280;57143;55.940;37.496;2024-01-30T02:18:17;100531.25;;;-0.10;100.00
69848;BME280;57143;55.940;37.496;2024-01-30T02:21:06;100529.31;;;-0.08;100.00
69848;BME280;57143;55.940;37.496;2024-01-30T02:23:34;100533.78;;;-0.08;100.00
69848;BME280;57143;55.940;37.496;2024-01-30T02:26:01;100522.16;;;-0.07;100.00
69848;BME280;57143;55.940;37.496;2024-01-30T02:28:28;100525.28;;;-0.02;100.00
69848;BME280;57143;55.940;37.496;2024-01-30T02:30:56;100530.34;;;0.01;100.00
69848;BME280;57143;55.940;37.496;2024-01-30T02:33:23;100528.41;;;0.03;100.00
69848;BME280;57143;55.940;37.496;2024-01-30T02:35:51;100509.75;;;0.03;100.00
69848;BME280;57143;55.940;37.496;2024-01-30T02:38:20;100519.41;;;0.04;100.00
69848;BME280;57143;55.940;37.496;2024-01-30T02:40:47;100518.09;;;-0.02;100.00
69848;BME280;57143;55.940;37.496;2024-01-30T02:43:15;100524.75;;;0.04;100.00
69848;BME280;57143;55.940;37.496;2024-01-30T02:45:43;100522.47;;;-0.01;100.00
69848;BME280;57143;55.940;37.496;2024-01-30T02:48:10;100525.31;;;0.08;100.00
69848;BME280;57143;55.940;37.496;2024-01-30T02:50:38;100528.41;;;0.03;100.00
69848;BME280;57143;55.940;37.496;2024-01-30T02:53:05;100521.81;;;0.07;100.00
69848;BME280;57143;55.940;37.496;2024-01-30T02:55:34;100525.19;;;0.09;100.00
69848;BME280;57143;55.940;37.496;2024-01-30T02:58:01;100532.22;;;0.10;100.00
69848;BME280;57143;55.940;37.496;2024-01-30T03:00:29;100541.38;;;0.17;100.00
69848;BME280;57143;55.940;37.496;2024-01-30T03:02:56;100538.44;;;0.20;100.00
69848;BME280;57143;55.940;37.496;2024-01-30T03:05:23;100539.19;;;0.22;100.00
69848;BME280;57143;55.940;37.496;2024-01-30T03:07:51;100545.59;;;0.20;100.00
69848;BME280;57143;55.940;37.496;2024-01-30T03:10:18;100548.13;;;0.21;100.00
69848;BME280;57143;55.940;37.496;2024-01-30T03:12:47;100547.69;;;0.16;100.00
69848;BME280;57143;55.940;37.496;2024-01-30T03:15:14;100553.09;;;0.26;100.00
69848;BME280;57143;55.940;37.496;2024-01-30T03:17:44;100546.00;;;0.15;100.00
69848;BME280;57143;55.940;37.496;2024-01-30T03:20:11;100548.25;;;0.20;100.00
69848;BME280;57143;55.940;37.496;2024-01-30T03:22:39;100550.41;;;0.26;100.00
69848;BME280;57143;55.940;37.496;2024-01-30T03:25:07;100546.91;;;0.25;100.00
69848;BME280;57143;55.940;37.496;2024-01-30T03:27:34;100538.63;;;0.28;100.00
69848;BME280;57143;55.940;37.496;2024-01-30T03:30:04;100538.03;;;0.25;100.00
69848;BME280;57143;55.940;37.496;2024-01-30T03:32:32;100540.78;;;0.34;100.00
69848;BME280;57143;55.940;37.496;2024-01-30T03:34:59;100547.78;;;0.35;100.00
69848;BME280;57143;55.940;37.496;2024-01-30T03:37:29;100535.31;;;0.36;100.00
69848;BME280;57143;55.940;37.496;2024-01-30T03:39:56;100536.53;;;0.32;100.00
69848;BME280;57143;55.940;37.496;2024-01-30T03:42:24;100560.03;;;0.38;100.00
69848;BME280;57143;55.940;37.496;2024-01-30T03:44:51;100558.09;;;0.40;100.00
69848;BME280;57143;55.940;37.496;2024-01-30T03:47:21;100564.53;;;0.47;100.00
69848;BME280;57143;55.940;37.496;2024-01-30T03:49:48;100559.78;;;0.50;100.00
69848;BME280;57143;55.940;37.496;2024-01-30T03:52:15;100560.19;;;0.46;100.00
69848;BME280;57143;55.940;37.496;2024-01-30T03:54:43;100559.09;;;0.48;100.00
69848;BME280;57143;55.940;37.496;2024-01-30T03:57:10;100561.50;;;0.51;100.00
69848;BME280;57143;55.940;37.496;2024-01-30T03:59:38;100570.09;;;0.55;100.00
69848;BME280;57143;55.940;37.496;2024-01-30T04:02:05;100563.03;;;0.54;100.00
69848;BME280;57143;55.940;37.496;2024-01-30T04:04:34;100570.78;;;0.57;100.00
69848;BME280;57143;55.940;37.496;2024-01-30T04:07:01;100566.69;;;0.53;100.00
69848;BME280;57143;55.940;37.496;2024-01-30T04:09:29;100557.72;;;0.54;100.00
69848;BME280;57143;55.940;37.496;2024-01-30T04:11:56;100565.19;;;0.60;100.00
69848;BME280;57143;55.940;37.496;2024-01-30T04:14:23;100561.94;;;0.56;100.00
69848;BME280;57143;55.940;37.496;2024-01-30T04:16:51;100569.53;;;0.61;100.00
69848;BME280;57143;55.940;37.496;2024-01-30T04:19:18;100554.38;;;0.61;100.00
69848;BME280;57143;55.940;37.496;2024-01-30T04:21:47;100551.28;;;0.56;100.00
69848;BME280;57143;55.940;37.496;2024-01-30T04:24:14;100555.03;;;0.54;100.00
69848;BME280;57143;55.940;37.496;2024-01-30T04:26:44;100551.28;;;0.56;100.00
69848;BME280;57143;55.940;37.496;2024-01-30T04:29:11;100543.44;;;0.64;100.00
69848;BME280;57143;55.940;37.496;2024-01-30T04:31:39;100553.28;;;0.64;100.00
69848;BME280;57143;55.940;37.496;2024-01-30T04:34:06;100539.22;;;0.62;100.00
69848;BME280;57143;55.940;37.496;2024-01-30T04:36:33;100556.53;;;0.67;100.00
69848;BME280;57143;55.940;37.496;2024-01-30T04:39:02;100544.88;;;0.68;100.00
69848;BME280;57143;55.940;37.496;2024-01-30T04:41:30;100552.47;;;0.73;100.00
69848;BME280;57143;55.940;37.496;2024-01-30T04:43:58;100552.31;;;0.74;100.00
69848;BME280;57143;55.940;37.496;2024-01-30T04:46:25;100555.84;;;0.75;100.00
69848;BME280;57143;55.940;37.496;2024-01-30T04:48:52;100561.19;;;0.75;100.00
69848;BME280;57143;55.940;37.496;2024-01-30T04:51:20;100545.16;;;0.75;100.00
69848;BME280;57143;55.940;37.496;2024-01-30T04:53:47;100542.56;;;0.84;100.00
69848;BME280;57143;55.940;37.496;2024-01-30T04:56:16;100552.25;;;0.85;100.00
69848;BME280;57143;55.940;37.496;2024-01-30T04:58:44;100542.13;;;0.89;100.00
69848;BME280;57143;55.940;37.496;2024-01-30T05:01:15;100546.63;;;0.88;100.00
69848;BME280;57143;55.940;37.496;2024-01-30T05:03:42;100541.28;;;0.88;100.00
69848;BME280;57143;55.940;37.496;2024-01-30T05:06:10;100546.38;;;0.91;100.00
69848;BME280;57143;55.940;37.496;2024-01-30T05:08:37;100541.41;;;0.87;100.00
69848;BME280;57143;55.940;37.496;2024-01-30T05:11:05;100549.00;;;0.82;100.00
69848;BME280;57143;55.940;37.496;2024-01-30T05:13:34;100563.91;;;0.94;100.00
69848;BME280;57143;55.940;37.496;2024-01-30T05:16:02;100549.28;;;0.88;100.00
69848;BME280;57143;55.940;37.496;2024-01-30T05:18:30;100555.47;;;0.89;100.00
69848;BME280;57143;55.940;37.496;2024-01-30T05:20:57;100560.25;;;0.95;100.00
69848;BME280;57143;55.940;37.496;2024-01-30T05:23:25;100565.06;;;0.91;100.00
69848;BME280;57143;55.940;37.496;2024-01-30T05:25:52;100571.78;;;0.95;100.00
69848;BME280;57143;55.940;37.496;2024-01-30T05:28:20;100567.59;;;0.93;100.00
69848;BME280;57143;55.940;37.496;2024-01-30T05:30:49;100568.97;;;0.97;100.00
69848;BME280;57143;55.940;37.496;2024-01-30T05:33:16;100566.88;;;0.91;100.00
69848;BME280;57143;55.940;37.496;2024-01-30T05:35:43;100568.84;;;0.98;100.00
69848;BME280;57143;55.940;37.496;2024-01-30T05:38:11;100555.78;;;0.95;100.00
69848;BME280;57143;55.940;37.496;2024-01-30T05:40:39;100566.63;;;1.03;100.00
69848;BME280;57143;55.940;37.496;2024-01-30T05:43:07;100576.31;;;1.04;100.00
69848;BME280;57143;55.940;37.496;2024-01-30T05:45:34;100575.47;;;1.04;100.00
69848;BME280;57143;55.940;37.496;2024-01-30T05:48:04;100577.31;;;1.03;100.00
69848;BME280;57143;55.940;37.496;2024-01-30T05:50:33;100565.34;;;0.98;100.00
69848;BME280;57143;55.940;37.496;2024-01-30T05:53:01;100582.09;;;1.09;100.00
69848;BME280;57143;55.940;37.496;2024-01-30T05:55:28;100579.13;;;1.03;100.00
69848;BME280;57143;55.940;37.496;2024-01-30T05:57:55;100586.28;;;1.02;100.00
69848;BME280;57143;55.940;37.496;2024-01-30T06:00:23;100589.53;;;1.06;100.00
69848;BME280;57143;55.940;37.496;2024-01-30T06:02:50;100589.09;;;1.10;100.00
69848;BME280;57143;55.940;37.496;2024-01-30T06:05:19;100602.50;;;1.20;100.00
69848;BME280;57143;55.940;37.496;2024-01-30T06:07:46;100597.81;;;1.12;100.00
69848;BME280;57143;55.940;37.496;2024-01-30T06:10:14;100589.97;;;1.11;100.00
69848;BME280;57143;55.940;37.496;2024-01-30T06:12:41;100592.81;;;1.19;100.00
69848;BME280;57143;55.940;37.496;2024-01-30T06:15:09;100598.69;;;1.23;100.00
69848;BME280;57143;55.940;37.496;2024-01-30T06:17:39;100596.03;;;1.23;100.00
69848;BME280;57143;55.940;37.496;2024-01-30T06:20:07;100599.97;;;1.18;100.00
69848;BME280;57143;55.940;37.496;2024-01-30T06:22:36;100613.91;;;1.22;100.00
69848;BME280;57143;55.940;37.496;2024-01-30T06:25:04;100611.81;;;1.26;100.00
69848;BME280;57143;55.940;37.496;2024-01-30T06:27:31;100616.72;;;1.30;100.00
69848;BME280;57143;55.940;37.496;2024-01-30T06:29:58;100614.75;;;1.32;100.00
69848;BME280;57143;55.940;37.496;2024-01-30T06:32:26;100619.53;;;1.38;100.00
69848;BME280;57143;55.940;37.496;2024-01-30T06:34:54;100616.75;;;1.40;100.00
69848;BME280;57143;55.940;37.496;2024-01-30T06:37:21;100617.06;;;1.46;100.00
69848;BME280;57143;55.940;37.496;2024-01-30T06:39:50;100614.25;;;1.48;100.00
69848;BME280;57143;55.940;37.496;2024-01-30T06:42:18;100621.41;;;1.47;100.00
69848;BME280;57143;55.940;37.496;2024-01-30T06:44:45;100604.38;;;1.39;100.00
69848;BME280;57143;55.940;37.496;2024-01-30T06:47:13;100622.69;;;1.53;100.00
69848;BME280;57143;55.940;37.496;2024-01-30T06:49:40;100609.31;;;1.53;100.00
69848;BME280;57143;55.940;37.496;2024-01-30T06:52:08;100610.72;;;1.47;100.00
69848;BME280;57143;55.940;37.496;2024-01-30T06:54:35;100622.97;;;1.59;100.00
69848;BME280;57143;55.940;37.496;2024-01-30T06:57:04;100626.78;;;1.57;100.00
69848;BME280;57143;55.940;37.496;2024-01-30T06:59:34;100632.66;;;1.51;100.00
69848;BME280;57143;55.940;37.496;2024-01-30T07:02:01;100632.94;;;1.57;100.00
69848;BME280;57143;55.940;37.496;2024-01-30T07:04:29;100629.13;;;1.50;100.00
69848;BME280;57143;55.940;37.496;2024-01-30T07:06:57;100630.97;;;1.59;100.00
69848;BME280;57143;55.940;37.496;2024-01-30T07:09:25;100636.19;;;1.51;100.00
69848;BME280;57143;55.940;37.496;2024-01-30T07:11:53;100640.56;;;1.62;100.00
69848;BME280;57143;55.940;37.496;2024-01-30T07:14:22;100640.44;;;1.82;100.00
69848;BME280;57143;55.940;37.496;2024-01-30T07:16:50;100638.47;;;1.75;100.00
69848;BME280;57143;55.940;37.496;2024-01-30T07:19:17;100642.00;;;1.75;100.00
69848;BME280;57143;55.940;37.496;2024-01-30T07:21:44;100646.47;;;1.65;100.00
69848;BME280;57143;55.940;37.496;2024-01-30T07:24:12;100644.38;;;1.69;100.00
69848;BME280;57143;55.940;37.496;2024-01-30T07:26:39;100651.00;;;1.74;100.00
69848;BME280;57143;55.940;37.496;2024-01-30T07:29:07;100642.28;;;1.72;100.00
69848;BME280;57143;55.940;37.496;2024-01-30T07:31:36;100655.22;;;1.77;100.00
69848;BME280;57143;55.940;37.496;2024-01-30T07:34:03;100653.53;;;1.85;100.00
69848;BME280;57143;55.940;37.496;2024-01-30T07:36:32;100653.09;;;1.90;100.00
69848;BME280;57143;55.940;37.496;2024-01-30T07:39:00;100651.03;;;2.03;100.00
69848;BME280;57143;55.940;37.496;2024-01-30T07:41:29;100644.81;;;2.02;100.00
69848;BME280;57143;55.940;37.496;2024-01-30T07:43:57;100649.06;;;2.05;100.00
69848;BME280;57143;55.940;37.496;2024-01-30T07:46:25;100644.81;;;1.93;100.00
69848;BME280;57143;55.940;37.496;2024-01-30T07:48:53;100645.25;;;1.98;100.00
69848;BME280;57143;55.940;37.496;2024-01-30T07:51:21;100643.69;;;2.14;100.00
69848;BME280;57143;55.940;37.496;2024-01-30T07:53:51;100650.59;;;2.07;100.00
69848;BME280;57143;55.940;37.496;2024-01-30T07:56:19;100640.72;;;2.17;100.00
69848;BME280;57143;55.940;37.496;2024-01-30T07:58:46;100649.19;;;2.22;100.00
69848;BME280;57143;55.940;37.496;2024-01-30T08:01:14;100650.31;;;2.20;100.00
69848;BME280;57143;55.940;37.496;2024-01-30T08:03:42;100647.22;;;2.24;100.00
69848;BME280;57143;55.940;37.496;2024-01-30T08:06:11;100645.81;;;2.20;100.00
69848;BME280;57143;55.940;37.496;2024-01-30T08:08:38;100654.38;;;2.14;100.00
69848;BME280;57143;55.940;37.496;2024-01-30T08:11:06;100649.75;;;2.16;100.00
69848;BME280;57143;55.940;37.496;2024-01-30T08:13:33;100651.56;;;2.16;100.00
69848;BME280;57143;55.940;37.496;2024-01-30T08:16:01;100655.38;;;2.23;100.00
69848;BME280;57143;55.940;37.496;2024-01-30T08:18:28;100664.22;;;2.33;100.00
69848;BME280;57143;55.940;37.496;2024-01-30T08:20:55;100655.25;;;2.34;100.00
69848;BME280;57143;55.940;37.496;2024-01-30T08:23:24;100663.56;;;2.31;100.00
69848;BME280;57143;55.940;37.496;2024-01-30T08:25:54;100656.78;;;2.36;100.00
69848;BME280;57143;55.940;37.496;2024-01-30T08:28:22;100668.75;;;2.32;100.00
69848;BME280;57143;55.940;37.496;2024-01-30T08:30:49;100666.50;;;2.38;100.00
69848;BME280;57143;55.940;37.496;2024-01-30T08:33:16;100665.78;;;2.35;100.00
69848;BME280;57143;55.940;37.496;2024-01-30T08:35:44;100657.78;;;2.35;100.00
69848;BME280;57143;55.940;37.496;2024-01-30T08:38:11;100648.16;;;2.52;100.00
69848;BME280;57143;55.940;37.496;2024-01-30T08:40:40;100635.94;;;2.40;100.00
69848;BME280;57143;55.940;37.496;2024-01-30T08:43:07;100649.72;;;2.55;100.00
69848;BME280;57143;55.940;37.496;2024-01-30T08:45:36;100657.91;;;2.53;100.00
69848;BME280;57143;55.940;37.496;2024-01-30T08:48:03;100656.34;;;2.51;100.00
69848;BME280;57143;55.940;37.496;2024-01-30T08:50:31;100661.38;;;2.73;100.00
69848;BME280;57143;55.940;37.496;2024-01-30T08:52:58;100670.44;;;2.62;100.00
69848;BME280;57143;55.940;37.496;2024-01-30T08:55:26;100662.66;;;2.69;100.00
69848;BME280;57143;55.940;37.496;2024-01-30T08:57:55;100676.03;;;2.59;100.00
69848;BME280;57143;55.940;37.496;2024-01-30T09:00:22;100667.19;;;2.59;100.00
69848;BME280;57143;55.940;37.496;2024-01-30T09:02:49;100668.56;;;2.63;100.00
69848;BME280;57143;55.940;37.496;2024-01-30T09:05:17;100652.50;;;2.63;100.00
69848;BME280;57143;55.940;37.496;2024-01-30T09:07:44;100657.59;;;2.66;100.00
69848;BME280;57143;55.940;37.496;2024-01-30T09:10:11;100670.28;;;2.64;100.00
69848;BME280;57143;55.940;37.496;2024-01-30T09:12:39;100659.13;;;2.68;100.00
69848;BME280;57143;55.940;37.496;2024-01-30T09:15:09;100635.16;;;2.76;100.00
69848;BME280;57143;55.940;37.496;2024-01-30T09:17:36;100646.81;;;2.85;100.00
69848;BME280;57143;55.940;37.496;2024-01-30T09:20:05;100640.03;;;2.90;100.00
69848;BME280;57143;55.940;37.496;2024-01-30T09:22:32;100653.19;;;2.84;100.00
69848;BME280;57143;55.940;37.496;2024-01-30T09:24:59;100652.31;;;2.83;100.00
69848;BME280;57143;55.940;37.496;2024-01-30T09:27:29;100649.84;;;2.72;100.00
69848;BME280;57143;55.940;37.496;2024-01-30T09:29:56;100647.56;;;2.68;100.00
69848;BME280;57143;55.940;37.496;2024-01-30T09:32:25;100646.47;;;2.70;100.00
69848;BME280;57143;55.940;37.496;2024-01-30T09:34:53;100637.34;;;2.54;100.00
69848;BME280;57143;55.940;37.496;2024-01-30T09:37:20;100649.84;;;2.63;100.00
69848;BME280;57143;55.940;37.496;2024-01-30T09:39:48;100637.00;;;2.76;100.00
69848;BME280;57143;55.940;37.496;2024-01-30T09:42:26;100639.94;;;2.73;100.00
69848;BME280;57143;55.940;37.496;2024-01-30T09:44:55;100642.91;;;2.79;100.00
69848;BME280;57143;55.940;37.496;2024-01-30T09:47:24;100641.34;;;2.86;100.00
69848;BME280;57143;55.940;37.496;2024-01-30T09:49:52;100637.53;;;2.89;100.00
69848;BME280;57143;55.940;37.496;2024-01-30T09:52:20;100625.53;;;2.93;100.00
69848;BME280;57143;55.940;37.496;2024-01-30T09:54:49;100646.03;;;3.11;100.00
69848;BME280;57143;55.940;37.496;2024-01-30T09:57:18;100641.78;;;3.18;100.00
69848;BME280;57143;55.940;37.496;2024-01-30T09:59:46;100646.34;;;3.35;100.00
69848;BME280;57143;55.940;37.496;2024-01-30T10:02:14;100638.00;;;3.38;100.00
69848;BME280;57143;55.940;37.496;2024-01-30T10:04:43;100645.38;;;3.36;100.00
69848;BME280;57143;55.940;37.496;2024-01-30T10:07:11;100651.56;;;3.37;100.00
69848;BME280;57143;55.940;37.496;2024-01-30T10:09:38;100655.56;;;3.23;100.00
69848;BME280;57143;55.940;37.496;2024-01-30T10:12:06;100652.81;;;3.42;100.00
69848;BME280;57143;55.940;37.496;2024-01-30T10:14:37;100647.22;;;3.36;100.00
69848;BME280;57143;55.940;37.496;2024-01-30T10:17:04;100649.28;;;3.42;100.00
69848;BME280;57143;55.940;37.496;2024-01-30T10:19:32;100648.09;;;3.27;100.00
69848;BME280;57143;55.940;37.496;2024-01-30T10:22:01;100641.34;;;3.50;100.00
69848;BME280;57143;55.940;37.496;2024-01-30T10:24:28;100636.28;;;3.47;100.00
69848;BME280;57143;55.940;37.496;2024-01-30T10:26:56;100637.97;;;3.48;100.00
69848;BME280;57143;55.940;37.496;2024-01-30T10:29:24;100637.28;;;3.46;100.00
69848;BME280;57143;55.940;37.496;2024-01-30T10:31:58;100643.66;;;3.45;100.00
69848;BME280;57143;55.940;37.496;2024-01-30T10:34:26;100636.53;;;3.53;100.00
69848;BME280;57143;55.940;37.496;2024-01-30T10:37:01;100636.00;;;3.50;100.00
69848;BME280;57143;55.940;37.496;2024-01-30T10:39:35;100638.47;;;3.34;100.00
69848;BME280;57143;55.940;37.496;2024-01-30T10:42:05;100637.78;;;3.32;100.00
69848;BME280;57143;55.940;37.496;2024-01-30T10:44:37;100625.94;;;3.34;100.00
69848;BME280;57143;55.940;37.496;2024-01-30T10:47:07;100623.72;;;3.47;100.00
69848;BME280;57143;55.940;37.496;2024-01-30T10:49:39;100635.25;;;3.30;100.00
69848;BME280;57143;55.940;37.496;2024-01-30T10:52:11;100633.75;;;3.45;100.00
69848;BME280;57143;55.940;37.496;2024-01-30T10:54:40;100638.94;;;3.47;100.00
69848;BME280;57143;55.940;37.496;2024-01-30T10:57:11;100643.97;;;3.32;100.00
69848;BME280;57143;55.940;37.496;2024-01-30T10:59:40;100646.28;;;3.18;100.00
69848;BME280;57143;55.940;37.496;2024-01-30T11:02:09;100648.50;;;3.32;100.00
69848;BME280;57143;55.940;37.496;2024-01-30T11:04:41;100649.91;;;3.26;100.00
69848;BME280;57143;55.940;37.496;2024-01-30T11:07:16;100653.53;;;3.35;100.00
69848;BME280;57143;55.940;37.496;2024-01-30T11:09:49;100657.56;;;3.21;100.00
69848;BME280;57143;55.940;37.496;2024-01-30T11:12:21;100654.47;;;3.16;100.00
69848;BME280;57143;55.940;37.496;2024-01-30T11:14:49;100653.84;;;2.95;100.00
69848;BME280;57143;55.940;37.496;2024-01-30T11:17:17;100662.72;;;3.05;100.00
69848;BME280;57143;55.940;37.496;2024-01-30T11:19:46;100650.28;;;3.04;100.00
69848;BME280;57143;55.940;37.496;2024-01-30T11:22:13;100669.84;;;3.14;100.00
69848;BME280;57143;55.940;37.496;2024-01-30T11:24:42;100667.00;;;3.16;100.00
69848;BME280;57143;55.940;37.496;2024-01-30T11:27:11;100665.94;;;3.09;100.00
69848;BME280;57143;55.940;37.496;2024-01-30T11:29:40;100670.19;;;3.02;100.00
69848;BME280;57143;55.940;37.496;2024-01-30T11:32:07;100674.13;;;2.98;100.00
69848;BME280;57143;55.940;37.496;2024-01-30T11:34:34;100678.69;;;2.88;100.00
69848;BME280;57143;55.940;37.496;2024-01-30T11:37:09;100683.03;;;2.89;100.00
69848;BME280;57143;55.940;37.496;2024-01-30T11:39:39;100687.13;;;2.83;100.00
69848;BME280;57143;55.940;37.496;2024-01-30T11:42:09;100681.41;;;2.69;100.00
69848;BME280;57143;55.940;37.496;2024-01-30T11:44:36;100690.13;;;2.71;100.00
69848;BME280;57143;55.940;37.496;2024-01-30T11:47:03;100684.91;;;2.79;100.00
69848;BME280;57143;55.940;37.496;2024-01-30T11:49:31;100685.03;;;2.68;100.00
69848;BME280;57143;55.940;37.496;2024-01-30T11:51:58;100680.81;;;2.75;100.00
69848;BME280;57143;55.940;37.496;2024-01-30T11:54:26;100673.06;;;2.81;100.00
69848;BME280;57143;55.940;37.496;2024-01-30T11:56:53;100679.81;;;2.85;100.00
69848;BME280;57143;55.940;37.496;2024-01-30T11:59:22;100686.00;;;2.76;100.00
69848;BME280;57143;55.940;37.496;2024-01-30T12:01:51;100688.00;;;2.74;100.00
69848;BME280;57143;55.940;37.496;2024-01-30T12:04:19;100678.88;;;2.67;100.00
69848;BME280;57143;55.940;37.496;2024-01-30T12:06:51;100677.72;;;2.70;100.00
69848;BME280;57143;55.940;37.496;2024-01-30T12:09:18;100693.94;;;2.68;100.00
69848;BME280;57143;55.940;37.496;2024-01-30T12:11:46;100689.72;;;2.66;100.00
69848;BME280;57143;55.940;37.496;2024-01-30T12:14:14;100675.22;;;2.49;100.00
69848;BME280;57143;55.940;37.496;2024-01-30T12:16:43;100682.66;;;2.65;100.00
69848;BME280;57143;55.940;37.496;2024-01-30T12:19:21;100693.38;;;2.65;100.00
69848;BME280;57143;55.940;37.496;2024-01-30T12:21:54;100689.97;;;2.72;100.00
69848;BME280;57143;55.940;37.496;2024-01-30T12:24:22;100697.56;;;2.77;100.00
69848;BME280;57143;55.940;37.496;2024-01-30T12:26:50;100688.97;;;2.73;100.00
69848;BME280;57143;55.940;37.496;2024-01-30T12:29:20;100692.94;;;2.60;100.00
69848;BME280;57143;55.940;37.496;2024-01-30T12:31:53;100686.16;;;2.75;100.00
69848;BME280;57143;55.940;37.496;2024-01-30T12:34:20;100693.22;;;2.76;100.00
69848;BME280;57143;55.940;37.496;2024-01-30T12:36:48;100690.09;;;2.80;100.00
69848;BME280;57143;55.940;37.496;2024-01-30T12:39:15;100695.31;;;2.91;100.00
69848;BME280;57143;55.940;37.496;2024-01-30T12:41:43;100687.81;;;2.95;100.00